Dundalk, Maryland
Current Conditions -  °F | °C
As of 8:45 AM on Saturday 01 Nov 2014 (Local Time) from KMTN Reporting Station
Moderate Rain Moderate Rain  
Wind Chill: 42°   Ceiling: 800
Heat Index: 48°   Visibility: 3mi
Dew Point: 45°   Wind: 15mph
Humidity: 87%   Direction: 30°NNE
Pressure: 29.82"   Gusts: NA
Location:  39.27°N, 76.5°W
Report Text: KMTN 011245Z 03013KT 3SM RA BKN008 OVC017 09/07 A2982
Loading
Personal Weather Stations






























Interactive Weather Map
Tropical Storm Tracking
New forecast layout! Learn more

10-Day Weather Forecast

Advertisements
Track Severe Weather on mobile